createdAt,value
2022-11-16T00:00:47.240Z,8.68
2022-11-16T00:03:51.723Z,6.95
2022-11-16T00:06:53.589Z,6.70
2022-11-16T00:09:55.319Z,7.40
2022-11-16T00:12:57.039Z,7.03
2022-11-16T00:15:59.057Z,8.13
2022-11-16T00:19:03.957Z,7.00
2022-11-16T00:22:05.671Z,7.43
2022-11-16T00:25:07.826Z,6.60
2022-11-16T00:28:10.250Z,7.05
2022-11-16T00:31:12.276Z,6.65
2022-11-16T00:34:14.617Z,6.10
2022-11-16T00:37:16.334Z,6.80
2022-11-16T00:40:18.171Z,7.63
2022-11-16T00:43:19.898Z,6.75
2022-11-16T00:46:21.998Z,6.40
2022-11-16T00:49:23.797Z,6.60
2022-11-16T00:52:25.505Z,6.10
2022-11-16T00:55:27.936Z,6.55
2022-11-16T00:58:30.964Z,6.10
2022-11-16T01:01:37.935Z,6.13
2022-11-16T01:04:41.130Z,6.63
2022-11-16T01:07:42.838Z,6.35
2022-11-16T01:10:44.708Z,6.60
2022-11-16T01:13:47.008Z,5.70
2022-11-16T01:16:51.545Z,6.57
2022-11-16T01:19:55.103Z,5.97
2022-11-16T01:22:57.377Z,6.50
2022-11-16T01:26:01.769Z,5.90
2022-11-16T01:29:04.900Z,6.72
2022-11-16T01:32:10.930Z,6.22
2022-11-16T01:35:17.753Z,5.63
2022-11-16T01:38:20.533Z,6.40
2022-11-16T01:41:25.934Z,6.18
2022-11-16T01:44:33.501Z,5.95
2022-11-16T01:47:46.402Z,5.97
2022-11-16T01:50:55.236Z,5.82
2022-11-16T01:53:58.379Z,5.57
2022-11-16T01:57:06.887Z,5.05
2022-11-16T02:00:16.019Z,6.82
2022-11-16T02:03:27.147Z,5.22
2022-11-16T02:06:43.623Z,5.60
2022-11-16T02:10:12.050Z,5.63
2022-11-16T02:13:29.622Z,5.50
2022-11-16T02:16:51.680Z,5.15
2022-11-16T02:20:13.621Z,8.13
2022-11-16T02:23:43.362Z,5.72
2022-11-16T02:27:14.710Z,5.18
2022-11-16T02:30:18.830Z,5.68
2022-11-16T02:33:28.063Z,5.13
2022-11-16T02:36:31.840Z,5.30
2022-11-16T02:39:36.842Z,5.80
2022-11-16T02:42:43.851Z,5.30
2022-11-16T02:48:55.878Z,5.20
2022-11-16T02:51:58.160Z,4.85
2022-11-16T02:55:00.723Z,4.63
2022-11-16T02:58:09.566Z,5.05
2022-11-16T03:01:30.864Z,5.13
2022-11-16T03:04:41.207Z,4.60
2022-11-16T03:07:52.225Z,5.97
2022-11-16T03:11:20.798Z,5.05
2022-11-16T03:14:32.659Z,5.13
2022-11-16T03:17:40.540Z,4.53
2022-11-16T03:20:44.536Z,4.93
2022-11-16T03:23:47.101Z,5.50
2022-11-16T03:27:15.147Z,4.32
2022-11-16T03:30:23.790Z,4.97
2022-11-16T03:33:32.784Z,4.65
2022-11-16T03:36:38.692Z,4.38
2022-11-16T03:39:42.668Z,5.10
2022-11-16T03:42:46.797Z,4.68
2022-11-16T03:45:49.012Z,4.57
2022-11-16T03:48:57.321Z,4.15
2022-11-16T03:52:01.385Z,4.05
2022-11-16T03:55:05.258Z,4.40
2022-11-16T03:58:08.699Z,4.15
2022-11-16T04:01:10.612Z,4.60
2022-11-16T04:04:33.478Z,4.25
2022-11-16T04:07:54.584Z,4.53
2022-11-16T04:11:14.825Z,4.43
2022-11-16T04:14:41.863Z,4.50
2022-11-16T04:18:05.347Z,3.90
2022-11-16T04:21:35.855Z,4.50
2022-11-16T04:24:42.343Z,4.03
2022-11-16T04:28:02.801Z,3.58
2022-11-16T04:31:24.267Z,4.30
2022-11-16T04:34:51.645Z,4.40
2022-11-16T04:37:55.395Z,3.92
2022-11-16T04:41:02.759Z,3.95
2022-11-16T04:44:25.875Z,4.32
2022-11-16T04:47:30.655Z,3.78
2022-11-16T04:50:32.641Z,4.45
2022-11-16T04:53:35.430Z,3.83
2022-11-16T04:56:47.108Z,3.92
2022-11-16T04:59:49.065Z,3.85
2022-11-16T05:02:50.903Z,3.78
2022-11-16T05:05:52.796Z,3.75
2022-11-16T05:08:54.537Z,4.20
2022-11-16T05:11:56.236Z,3.42
2022-11-16T05:14:58.398Z,5.45
2022-11-16T05:18:02.105Z,3.25
2022-11-16T05:21:05.308Z,3.88
2022-11-16T05:24:30.476Z,3.75
2022-11-16T05:27:32.690Z,5.40
2022-11-16T05:30:34.568Z,8.77
2022-11-16T05:33:38.335Z,4.47
2022-11-16T05:36:40.927Z,5.90
2022-11-16T05:39:42.922Z,5.50
2022-11-16T05:42:45.000Z,4.32
2022-11-16T05:45:46.978Z,6.38
2022-11-16T05:48:51.057Z,5.20
2022-11-16T05:51:52.923Z,12.35
2022-11-16T05:54:56.741Z,4.55
2022-11-16T05:57:58.568Z,4.50
2022-11-16T06:01:00.516Z,4.88
2022-11-16T06:04:02.817Z,6.13
2022-11-16T06:07:06.724Z,5.60
2022-11-16T06:10:10.610Z,4.50
2022-11-16T06:13:13.385Z,5.35
2022-11-16T06:16:16.150Z,5.15
2022-11-16T06:19:17.931Z,4.00
2022-11-16T06:22:19.696Z,2.35
2022-11-16T06:25:21.481Z,3.38
2022-11-16T06:28:23.925Z,3.70
2022-11-16T06:31:25.764Z,3.22
2022-11-16T06:34:29.368Z,7.03
2022-11-16T06:37:31.431Z,4.78
2022-11-16T06:40:33.902Z,2.75
2022-11-16T06:43:37.394Z,2.53
2022-11-16T06:46:39.646Z,3.08
2022-11-16T06:49:42.414Z,2.00
2022-11-16T06:52:51.534Z,3.00
2022-11-16T06:55:53.946Z,3.65
2022-11-16T06:58:57.185Z,2.85
2022-11-16T07:02:00.997Z,2.28
2022-11-16T07:05:06.919Z,4.47
2022-11-16T07:08:09.658Z,2.75
2022-11-16T07:11:11.597Z,3.83
2022-11-16T07:14:13.558Z,3.03
2022-11-16T07:17:15.990Z,2.30
2022-11-16T07:20:18.572Z,3.72
2022-11-16T07:23:20.712Z,3.30
2022-11-16T07:26:22.971Z,4.30
2022-11-16T07:29:40.336Z,2.75
2022-11-16T07:32:59.590Z,3.40
2022-11-16T07:36:21.350Z,3.72
2022-11-16T07:39:23.183Z,2.03
2022-11-16T07:42:24.974Z,2.28
2022-11-16T07:46:21.408Z,2.58
2022-11-16T07:49:20.417Z,2.90
2022-11-16T07:52:27.341Z,3.28
2022-11-16T07:55:34.652Z,2.20
2022-11-16T07:58:38.014Z,3.05
2022-11-16T08:01:39.909Z,2.42
2022-11-16T08:04:43.027Z,2.25
2022-11-16T08:07:45.237Z,3.85
2022-11-16T08:10:47.385Z,6.50
2022-11-16T08:13:49.480Z,8.48
2022-11-16T08:16:52.188Z,4.60
2022-11-16T08:19:54.518Z,5.57
2022-11-16T08:23:00.704Z,6.10
2022-11-16T08:26:06.895Z,7.32
2022-11-16T08:29:08.903Z,3.03
2022-11-16T08:32:14.091Z,3.05
2022-11-16T08:35:16.029Z,2.45
2022-11-16T08:38:19.363Z,2.60
2022-11-16T08:41:21.500Z,3.05
2022-11-16T08:44:24.635Z,3.38
2022-11-16T08:47:28.882Z,6.95
2022-11-16T08:50:55.571Z,3.88
2022-11-16T08:53:57.389Z,2.95
2022-11-16T08:57:00.104Z,5.38
2022-11-16T09:00:04.663Z,3.22
2022-11-16T09:03:06.418Z,2.65
2022-11-16T09:06:09.408Z,2.28
2022-11-16T09:09:11.227Z,4.55
2022-11-16T09:12:12.937Z,1.67
2022-11-16T09:15:14.665Z,3.05
2022-11-16T09:18:16.455Z,4.95
2022-11-16T09:21:26.926Z,1.85
2022-11-16T09:24:28.647Z,3.08
2022-11-16T09:27:30.416Z,3.53
2022-11-16T09:30:32.145Z,7.07
2022-11-16T09:33:34.377Z,2.63
2022-11-16T09:36:36.425Z,4.47
2022-11-16T09:39:38.184Z,2.05
2022-11-16T09:42:52.567Z,3.47
2022-11-16T09:46:25.533Z,2.03
2022-11-16T09:49:34.014Z,5.05
2022-11-16T09:52:41.370Z,2.47
2022-11-16T09:55:54.544Z,2.15
2022-11-16T09:59:07.834Z,3.13
2022-11-16T10:02:47.722Z,2.17
2022-11-16T10:06:11.862Z,2.75
2022-11-16T10:09:13.906Z,2.08
2022-11-16T10:12:21.898Z,3.53
2022-11-16T10:15:41.424Z,2.63
2022-11-16T10:19:07.998Z,3.25
2022-11-16T10:22:30.216Z,3.05
2022-11-16T10:25:43.493Z,2.33
2022-11-16T10:29:05.068Z,2.33
2022-11-16T10:32:16.611Z,4.72
2022-11-16T10:35:27.005Z,3.05
2022-11-16T10:38:32.669Z,3.00
2022-11-16T10:41:44.068Z,1.80
2022-11-16T10:44:52.627Z,12.00
2022-11-16T10:48:20.740Z,2.55
2022-11-16T10:51:22.480Z,2.80
2022-11-16T10:54:24.188Z,2.55
2022-11-16T10:57:45.820Z,1.58
2022-11-16T11:00:51.666Z,3.67
2022-11-16T11:03:53.697Z,3.63
2022-11-16T11:06:56.512Z,1.85
2022-11-16T11:09:58.776Z,3.65
2022-11-16T11:13:23.842Z,3.60
2022-11-16T11:16:25.799Z,2.42
2022-11-16T11:19:28.780Z,2.35
2022-11-16T11:22:32.125Z,1.77
2022-11-16T11:25:37.242Z,1.60
2022-11-16T11:28:46.355Z,5.22
2022-11-16T11:31:52.670Z,4.43
2022-11-16T11:34:56.053Z,1.52
2022-11-16T11:38:07.453Z,2.15
2022-11-16T11:41:18.972Z,8.00
2022-11-16T11:44:20.691Z,2.53
2022-11-16T11:47:59.019Z,2.20
2022-11-16T11:54:16.371Z,2.05
2022-11-16T11:57:22.933Z,1.85
2022-11-16T12:00:26.069Z,2.25
2022-11-16T12:03:43.145Z,1.73
2022-11-16T12:07:09.021Z,1.35
2022-11-16T12:10:36.336Z,1.38
2022-11-16T12:14:12.039Z,2.42
2022-11-16T12:17:21.663Z,1.27
2022-11-16T12:20:57.133Z,1.88
2022-11-16T12:24:04.644Z,2.92
2022-11-16T12:27:32.990Z,2.38
2022-11-16T12:30:47.908Z,2.70
2022-11-16T12:34:16.161Z,2.85
2022-11-16T12:37:44.022Z,3.28
2022-11-16T12:41:26.677Z,3.15
2022-11-16T12:44:28.352Z,1.85
2022-11-16T12:48:24.988Z,2.00
2022-11-16T12:51:36.362Z,2.45
2022-11-16T12:55:24.727Z,3.58
2022-11-16T12:58:33.258Z,1.40
2022-11-16T13:01:41.154Z,1.38
2022-11-16T13:04:47.247Z,2.75
2022-11-16T13:07:56.990Z,1.50
2022-11-16T13:11:17.687Z,1.42
2022-11-16T13:14:36.935Z,1.85
2022-11-16T13:17:39.601Z,1.90
2022-11-16T13:20:51.883Z,1.33
2022-11-16T13:24:17.652Z,2.13
2022-11-16T13:27:28.551Z,1.30
2022-11-16T13:30:56.450Z,1.52
2022-11-16T13:34:03.307Z,2.33
2022-11-16T13:37:38.963Z,2.10
2022-11-16T13:40:41.606Z,5.45
2022-11-16T13:43:49.358Z,5.47
2022-11-16T13:46:59.680Z,8.48
2022-11-16T13:50:15.671Z,6.72
2022-11-16T13:54:43.125Z,6.90
2022-11-16T13:57:00.182Z,17.38
2022-11-16T14:00:01.844Z,14.52
2022-11-16T14:03:17.601Z,20.98
2022-11-16T14:06:19.264Z,16.65
2022-11-16T14:09:43.666Z,17.55
2022-11-16T14:12:53.226Z,16.15
2022-11-16T14:16:19.992Z,14.57
2022-11-16T14:19:47.288Z,16.08
2022-11-16T14:23:03.526Z,15.02
2022-11-16T14:26:37.190Z,15.93
2022-11-16T14:30:05.074Z,12.85
2022-11-16T14:33:14.802Z,12.73
2022-11-16T14:36:17.017Z,14.57
2022-11-16T14:39:41.123Z,12.95
2022-11-16T14:46:21.531Z,13.63
2022-11-16T14:49:25.977Z,12.68
2022-11-16T14:52:39.479Z,11.65
2022-11-16T14:55:43.795Z,13.48
2022-11-16T14:58:57.102Z,13.43
2022-11-16T15:02:04.948Z,11.68
2022-11-16T15:05:07.287Z,13.55
2022-11-16T15:08:18.967Z,12.10
2022-11-16T15:11:51.811Z,14.35
2022-11-16T15:14:57.015Z,9.90
2022-11-16T15:18:01.788Z,13.10
2022-11-16T15:21:03.569Z,9.90
2022-11-16T15:24:29.359Z,13.52
2022-11-16T15:27:41.403Z,10.07
2022-11-16T15:30:46.458Z,14.52
2022-11-16T15:33:50.393Z,9.68
2022-11-16T15:36:54.730Z,16.40
2022-11-16T15:40:00.223Z,18.15
2022-11-16T15:43:07.064Z,11.18
2022-11-16T15:46:12.561Z,9.02
2022-11-16T15:49:31.347Z,10.32
2022-11-16T15:52:50.554Z,15.15
2022-11-16T15:55:53.131Z,12.98
2022-11-16T15:58:58.281Z,10.38
2022-11-16T16:02:00.170Z,8.60
2022-11-16T16:05:01.992Z,8.82
2022-11-16T16:08:05.537Z,8.10
2022-11-16T16:11:16.501Z,8.65
2022-11-16T16:14:27.062Z,8.00
2022-11-16T16:17:29.868Z,9.13
2022-11-16T16:20:32.511Z,7.28
2022-11-16T16:23:47.835Z,10.77
2022-11-16T16:26:49.520Z,7.05
2022-11-16T16:29:53.489Z,9.23
2022-11-16T16:32:55.674Z,12.20
2022-11-16T16:35:57.399Z,11.43
2022-11-16T16:38:59.118Z,11.23
2022-11-16T16:42:00.888Z,20.40
2022-11-16T16:45:02.701Z,10.73
2022-11-16T16:48:05.301Z,7.30
2022-11-16T16:51:09.904Z,14.13
2022-11-16T16:54:14.543Z,10.13
2022-11-16T16:57:19.240Z,12.38
2022-11-16T17:00:21.033Z,10.13
2022-11-16T17:03:22.721Z,14.52
2022-11-16T17:06:24.939Z,11.95
2022-11-16T17:09:26.681Z,9.40
2022-11-16T17:12:28.402Z,7.93
2022-11-16T17:15:30.199Z,8.18
2022-11-16T17:18:31.880Z,10.68
2022-11-16T17:21:33.582Z,8.63
2022-11-16T17:24:35.701Z,10.13
2022-11-16T17:27:37.406Z,10.52
2022-11-16T17:30:39.088Z,8.32
2022-11-16T17:33:42.257Z,6.57
2022-11-16T17:36:44.761Z,8.98
2022-11-16T17:39:46.531Z,8.13
2022-11-16T17:42:48.283Z,6.20
2022-11-16T17:45:49.993Z,5.68
2022-11-16T17:48:52.378Z,7.43
2022-11-16T17:51:54.099Z,10.90
2022-11-16T17:54:55.798Z,11.13
2022-11-16T17:57:58.376Z,9.23
2022-11-16T18:01:00.184Z,8.02
2022-11-16T18:04:02.507Z,11.27
2022-11-16T18:07:04.547Z,9.40
2022-11-16T18:10:07.099Z,10.32
2022-11-16T18:13:08.864Z,7.15
2022-11-16T18:16:19.059Z,8.35
2022-11-16T18:19:20.777Z,7.30
2022-11-16T18:22:22.531Z,9.60
2022-11-16T18:25:24.601Z,5.78
2022-11-16T18:28:26.566Z,7.35
2022-11-16T18:31:29.677Z,10.95
2022-11-16T18:34:31.445Z,6.90
2022-11-16T18:37:33.157Z,8.93
2022-11-16T18:40:35.016Z,10.45
2022-11-16T18:43:37.162Z,8.77
2022-11-16T18:46:39.357Z,8.15
2022-11-16T18:49:41.054Z,6.18
2022-11-16T18:52:45.556Z,7.45
2022-11-16T18:55:57.497Z,5.20
2022-11-16T18:58:59.731Z,8.68
2022-11-16T19:02:01.474Z,8.27
2022-11-16T19:05:03.308Z,11.70
2022-11-16T19:08:05.300Z,19.67
2022-11-16T19:11:12.428Z,19.58
2022-11-16T19:14:14.265Z,15.88
2022-11-16T19:17:16.007Z,14.23
2022-11-16T19:20:17.791Z,12.68
2022-11-16T19:23:19.496Z,12.75
2022-11-16T19:26:26.692Z,11.07
2022-11-16T19:29:28.405Z,10.15
2022-11-16T19:32:31.992Z,11.30
2022-11-16T19:35:33.695Z,11.63
2022-11-16T19:38:35.632Z,10.73
2022-11-16T19:41:37.337Z,10.55
2022-11-16T19:44:39.042Z,10.43
2022-11-16T19:47:40.816Z,12.52
2022-11-16T19:50:42.525Z,9.43
2022-11-16T19:53:44.271Z,8.60
2022-11-16T19:56:49.311Z,10.10
2022-11-16T19:59:53.757Z,7.93
2022-11-16T20:02:57.290Z,6.80
2022-11-16T20:06:14.936Z,7.45
2022-11-16T20:09:17.022Z,9.02
2022-11-16T20:12:18.742Z,7.43
2022-11-16T20:15:22.538Z,9.48
2022-11-16T20:18:24.422Z,10.50
2022-11-16T20:21:28.752Z,5.57
2022-11-16T20:24:30.607Z,6.72
2022-11-16T20:27:32.418Z,7.35
2022-11-16T20:30:34.152Z,6.18
2022-11-16T20:33:36.218Z,6.13
2022-11-16T20:36:38.187Z,5.45
2022-11-16T20:39:39.874Z,6.10
2022-11-16T20:42:41.656Z,6.57
2022-11-16T20:45:43.362Z,6.20
2022-11-16T20:48:45.504Z,7.05
2022-11-16T20:51:48.271Z,6.38
2022-11-16T20:54:49.946Z,7.57
2022-11-16T20:57:51.713Z,5.40
2022-11-16T21:00:53.522Z,6.88
2022-11-16T21:03:56.066Z,4.18
2022-11-16T21:06:57.802Z,6.60
2022-11-16T21:10:18.299Z,6.18
2022-11-16T21:13:40.166Z,5.70
2022-11-16T21:16:41.997Z,7.65
2022-11-16T21:19:59.592Z,4.78
2022-11-16T21:23:05.379Z,5.07
2022-11-16T21:26:15.255Z,4.10
2022-11-16T21:29:16.964Z,6.68
2022-11-16T21:32:18.737Z,4.07
2022-11-16T21:35:20.933Z,5.45
2022-11-16T21:38:24.767Z,3.55
2022-11-16T21:41:26.867Z,4.75
2022-11-16T21:44:41.618Z,4.28
2022-11-16T21:47:43.321Z,5.13
2022-11-16T21:50:45.055Z,3.95
2022-11-16T21:53:47.115Z,3.50
2022-11-16T21:56:48.846Z,6.15
2022-11-16T21:59:51.015Z,3.45
2022-11-16T22:02:52.893Z,7.90
2022-11-16T22:06:14.677Z,4.28
2022-11-16T22:09:16.788Z,3.92
2022-11-16T22:12:18.499Z,5.05
2022-11-16T22:15:20.198Z,4.97
2022-11-16T22:18:21.901Z,5.05
2022-11-16T22:21:23.674Z,5.50
2022-11-16T22:24:25.365Z,3.83
2022-11-16T22:27:27.285Z,4.60
2022-11-16T22:30:28.971Z,5.40
2022-11-16T22:33:30.739Z,6.80
2022-11-16T22:36:32.441Z,2.60
2022-11-16T22:39:34.644Z,4.03
2022-11-16T22:42:36.360Z,3.67
2022-11-16T22:45:38.027Z,3.33
2022-11-16T22:48:40.989Z,5.20
2022-11-16T22:51:42.770Z,7.78
2022-11-16T22:54:44.464Z,3.88
2022-11-16T22:57:46.153Z,13.02
2022-11-16T23:00:47.838Z,4.50
2022-11-16T23:03:50.064Z,3.20
2022-11-16T23:06:51.954Z,3.13
2022-11-16T23:09:53.652Z,4.38
2022-11-16T23:13:14.116Z,6.53
2022-11-16T23:16:15.804Z,5.22
2022-11-16T23:19:38.156Z,3.28
2022-11-16T23:22:58.703Z,5.55
2022-11-16T23:26:19.223Z,5.05
2022-11-16T23:29:20.983Z,5.95
2022-11-16T23:32:22.697Z,3.10
2022-11-16T23:35:24.416Z,3.75
2022-11-16T23:38:26.086Z,2.63
2022-11-16T23:41:47.462Z,2.47
2022-11-16T23:44:49.142Z,4.22
2022-11-16T23:47:50.870Z,3.75
2022-11-16T23:50:52.598Z,3.58
2022-11-16T23:53:55.683Z,4.18
2022-11-16T23:56:58.066Z,3.00
2022-11-16T23:59:59.753Z,2.95
